createdAt,value
2023-01-10T00:00:14.795Z,41.06
2023-01-10T00:02:42.952Z,40.92
2023-01-10T00:05:12.520Z,41.31
2023-01-10T00:07:40.639Z,41.13
2023-01-10T00:10:09.727Z,41.42
2023-01-10T00:12:55.059Z,40.88
2023-01-10T00:15:23.222Z,41.00
2023-01-10T00:17:51.304Z,40.79
2023-01-10T00:20:21.060Z,41.15
2023-01-10T00:22:50.536Z,40.98
2023-01-10T00:25:19.873Z,40.97
2023-01-10T00:27:49.680Z,40.84
2023-01-10T00:30:18.174Z,41.50
2023-01-10T00:32:46.311Z,41.29
2023-01-10T00:35:14.490Z,41.33
2023-01-10T00:37:44.003Z,41.04
2023-01-10T00:40:13.188Z,41.21
2023-01-10T00:42:58.925Z,41.36
2023-01-10T00:45:27.658Z,41.12
2023-01-10T00:47:55.839Z,40.99
2023-01-10T00:50:23.982Z,41.31
2023-01-10T00:52:53.451Z,40.92
2023-01-10T00:55:21.570Z,41.18
2023-01-10T00:57:49.695Z,41.17
2023-01-10T01:00:18.495Z,40.88
2023-01-10T01:02:47.080Z,41.55
2023-01-10T01:05:15.171Z,41.50
2023-01-10T01:07:43.351Z,41.00
2023-01-10T01:10:28.348Z,41.37
2023-01-10T01:12:57.044Z,41.42
2023-01-10T01:15:25.283Z,40.94
2023-01-10T01:17:53.418Z,41.44
2023-01-10T01:20:21.996Z,40.96
2023-01-10T01:22:50.149Z,40.94
2023-01-10T01:25:19.696Z,41.08
2023-01-10T01:27:47.786Z,41.67
2023-01-10T01:30:16.023Z,41.55
2023-01-10T01:32:44.204Z,41.46
2023-01-10T01:35:13.680Z,41.23
2023-01-10T01:37:41.857Z,40.93
2023-01-10T01:40:11.958Z,41.66
2023-01-10T01:42:41.555Z,41.19
2023-01-10T01:45:46.163Z,41.59
2023-01-10T01:48:17.588Z,40.91
2023-01-10T01:50:48.157Z,41.08
2023-01-10T01:53:19.132Z,40.99
2023-01-10T01:55:47.257Z,41.24
2023-01-10T01:58:18.475Z,41.54
2023-01-10T02:00:46.686Z,40.96
2023-01-10T02:03:14.827Z,41.52
2023-01-10T02:05:43.004Z,41.31
2023-01-10T02:08:11.080Z,41.61
2023-01-10T02:10:42.452Z,41.66
2023-01-10T02:13:11.402Z,41.16
2023-01-10T02:15:40.918Z,40.99
2023-01-10T02:18:09.044Z,41.31
2023-01-10T02:20:42.594Z,41.09
2023-01-10T02:23:40.577Z,40.97
2023-01-10T02:26:47.184Z,41.04
2023-01-10T02:29:50.461Z,40.94
2023-01-10T02:32:43.836Z,40.93
2023-01-10T02:35:28.511Z,41.54
2023-01-10T02:38:01.989Z,41.69
2023-01-10T02:40:32.044Z,41.29
2023-01-10T02:43:04.208Z,40.92
2023-01-10T02:45:33.701Z,41.08
2023-01-10T02:48:03.187Z,41.03
2023-01-10T02:50:37.739Z,41.19
2023-01-10T02:53:07.959Z,41.44
2023-01-10T02:55:48.282Z,41.43
2023-01-10T02:58:21.620Z,41.39
2023-01-10T03:00:50.728Z,40.88
2023-01-10T03:03:33.326Z,41.36
2023-01-10T03:06:08.491Z,41.53
2023-01-10T03:08:38.195Z,41.48
2023-01-10T03:11:07.534Z,40.97
2023-01-10T03:13:37.774Z,41.49
2023-01-10T03:16:07.130Z,41.57
2023-01-10T03:18:39.367Z,41.04
2023-01-10T03:21:07.713Z,40.94
2023-01-10T03:23:35.914Z,41.17
2023-01-10T03:26:04.062Z,41.34
2023-01-10T03:28:33.393Z,40.84
2023-01-10T03:31:02.860Z,41.17
2023-01-10T03:33:32.383Z,41.62
2023-01-10T03:36:09.023Z,40.96
2023-01-10T03:38:39.616Z,40.78
2023-01-10T03:41:09.929Z,41.18
2023-01-10T03:43:54.813Z,41.13
2023-01-10T03:46:26.070Z,41.51
2023-01-10T03:48:54.186Z,41.50
2023-01-10T03:51:23.587Z,41.53
2023-01-10T03:53:51.682Z,41.33
2023-01-10T03:56:19.756Z,40.99
2023-01-10T03:58:47.876Z,41.20
2023-01-10T04:01:17.315Z,41.15
2023-01-10T04:03:45.629Z,41.54
2023-01-10T04:06:13.814Z,41.48
2023-01-10T04:08:43.294Z,41.22
2023-01-10T04:11:11.345Z,41.61
2023-01-10T04:13:42.076Z,41.73
2023-01-10T04:16:11.389Z,41.58
2023-01-10T04:18:39.539Z,41.52
2023-01-10T04:21:07.887Z,40.89
2023-01-10T04:23:35.897Z,41.29
2023-01-10T04:26:05.526Z,41.59
2023-01-10T04:28:33.577Z,41.57
2023-01-10T04:31:01.685Z,41.59
2023-01-10T04:33:29.725Z,40.92
2023-01-10T04:35:57.960Z,41.19
2023-01-10T04:38:26.017Z,40.70
2023-01-10T04:40:54.827Z,41.39
2023-01-10T04:43:24.420Z,41.68
2023-01-10T04:45:52.577Z,41.42
2023-01-10T04:48:20.673Z,40.97
2023-01-10T04:50:51.988Z,41.59
2023-01-10T04:53:20.126Z,41.46
2023-01-10T04:55:48.282Z,41.34
2023-01-10T04:58:16.386Z,41.27
2023-01-10T05:00:45.825Z,41.56
2023-01-10T05:03:14.006Z,40.99
2023-01-10T05:05:42.148Z,41.28
2023-01-10T05:08:10.311Z,40.92
2023-01-10T05:10:38.375Z,41.68
2023-01-10T05:13:06.512Z,40.87
2023-01-10T05:15:34.593Z,41.31
2023-01-10T05:18:04.106Z,41.57
2023-01-10T05:20:32.222Z,41.33
2023-01-10T05:23:00.307Z,41.57
2023-01-10T05:25:28.447Z,41.31
2023-01-10T05:27:56.510Z,41.20
2023-01-10T05:30:24.640Z,40.84
2023-01-10T05:32:52.723Z,40.94
2023-01-10T05:35:22.256Z,40.92
2023-01-10T05:37:50.380Z,41.57
2023-01-10T05:40:18.777Z,40.94
2023-01-10T05:42:47.005Z,41.56
2023-01-10T05:45:15.190Z,41.60
2023-01-10T05:47:43.320Z,41.54
2023-01-10T05:50:12.292Z,41.19
2023-01-10T05:52:41.778Z,41.66
2023-01-10T05:55:10.007Z,40.91
2023-01-10T05:57:38.155Z,41.15
2023-01-10T06:00:07.635Z,41.71
2023-01-10T06:02:39.635Z,41.08
2023-01-10T06:05:08.428Z,41.47
2023-01-10T06:07:36.526Z,41.62
2023-01-10T06:10:06.910Z,41.59
2023-01-10T06:12:35.057Z,41.67
2023-01-10T06:15:03.490Z,41.32
2023-01-10T06:17:31.684Z,41.42
2023-01-10T06:19:59.779Z,41.49
2023-01-10T06:22:28.197Z,40.62
2023-01-10T06:24:56.302Z,40.41
2023-01-10T06:27:25.846Z,40.85
2023-01-10T06:29:54.064Z,41.22
2023-01-10T06:32:22.167Z,40.97
2023-01-10T06:34:50.325Z,41.48
2023-01-10T06:37:20.223Z,41.47
2023-01-10T06:39:48.508Z,40.96
2023-01-10T06:42:16.603Z,40.78
2023-01-10T06:44:46.687Z,41.22
2023-01-10T06:47:14.823Z,41.04
2023-01-10T06:49:42.894Z,41.36
2023-01-10T06:52:11.393Z,41.06
2023-01-10T06:54:39.723Z,40.82
2023-01-10T06:57:07.881Z,41.02
2023-01-10T06:59:36.072Z,41.13
2023-01-10T07:02:05.785Z,41.30
2023-01-10T07:04:34.072Z,40.99
2023-01-10T07:07:02.178Z,40.52
2023-01-10T07:09:30.313Z,40.40
2023-01-10T07:11:58.387Z,41.00
2023-01-10T07:14:26.554Z,40.91
2023-01-10T07:16:54.591Z,40.20
2023-01-10T07:19:24.123Z,40.44
2023-01-10T07:21:52.311Z,40.29
2023-01-10T07:24:20.527Z,39.93
2023-01-10T07:26:48.706Z,39.79
2023-01-10T07:29:16.786Z,40.01
2023-01-10T07:31:44.931Z,39.78
2023-01-10T07:34:12.971Z,39.84
2023-01-10T07:36:42.593Z,40.29
2023-01-10T07:39:10.723Z,39.62
2023-01-10T07:41:38.862Z,40.12
2023-01-10T07:44:06.947Z,40.13
2023-01-10T07:46:35.125Z,39.38
2023-01-10T07:49:03.220Z,39.43
2023-01-10T07:51:31.381Z,39.74
2023-01-10T07:54:00.841Z,39.54
2023-01-10T07:56:29.002Z,39.24
2023-01-10T07:58:57.171Z,39.21
2023-01-10T08:01:26.184Z,39.37
2023-01-10T08:03:54.467Z,38.91
2023-01-10T08:06:22.624Z,39.66
2023-01-10T08:08:50.737Z,39.66
2023-01-10T08:11:20.494Z,39.51
2023-01-10T08:13:48.636Z,39.55
2023-01-10T08:16:16.817Z,39.33
2023-01-10T08:18:45.193Z,39.44
2023-01-10T08:21:13.249Z,39.49
2023-01-10T08:23:41.368Z,39.61
2023-01-10T08:26:09.451Z,39.25
2023-01-10T08:28:39.024Z,38.78
2023-01-10T08:31:08.231Z,38.94
2023-01-10T08:33:36.490Z,38.86
2023-01-10T08:36:04.807Z,39.11
2023-01-10T08:38:32.922Z,38.60
2023-01-10T08:41:01.131Z,38.54
2023-01-10T08:43:29.317Z,38.87
2023-01-10T08:45:58.842Z,38.75
2023-01-10T08:48:27.196Z,38.59
2023-01-10T08:50:55.315Z,38.58
2023-01-10T08:53:23.675Z,38.88
2023-01-10T08:55:51.789Z,38.97
2023-01-10T08:58:22.038Z,39.25
2023-01-10T09:00:51.396Z,39.13
2023-01-10T09:03:21.279Z,39.08
2023-01-10T09:05:49.593Z,38.35
2023-01-10T09:08:17.683Z,39.02
2023-01-10T09:10:45.860Z,38.81
2023-01-10T09:13:14.091Z,38.92
2023-01-10T09:15:43.092Z,38.75
2023-01-10T09:18:11.931Z,38.13
2023-01-10T09:20:42.154Z,37.80
2023-01-10T09:23:11.403Z,38.80
2023-01-10T09:25:39.484Z,38.15
2023-01-10T09:28:07.589Z,38.66
2023-01-10T09:30:35.912Z,39.02
2023-01-10T09:33:04.083Z,39.00
2023-01-10T09:35:32.299Z,39.17
2023-01-10T09:38:02.353Z,38.51
2023-01-10T09:40:39.337Z,38.97
2023-01-10T09:43:12.008Z,38.53
2023-01-10T09:45:43.412Z,38.75
2023-01-10T09:48:14.505Z,38.80
2023-01-10T09:50:45.970Z,38.41
2023-01-10T09:53:17.434Z,38.73
2023-01-10T09:55:45.611Z,38.70
2023-01-10T09:58:14.408Z,38.72
2023-01-10T10:00:44.632Z,38.87
2023-01-10T10:03:19.375Z,38.26
2023-01-10T10:05:47.592Z,38.39
2023-01-10T10:08:18.526Z,39.10
2023-01-10T10:10:52.781Z,38.51
2023-01-10T10:13:27.446Z,38.73
2023-01-10T10:16:00.337Z,38.45
2023-01-10T10:18:32.861Z,38.56
2023-01-10T10:21:03.212Z,38.69
2023-01-10T10:23:44.118Z,38.62
2023-01-10T10:26:14.872Z,38.65
2023-01-10T10:29:15.611Z,38.87
2023-01-10T10:32:17.224Z,38.68
2023-01-10T10:34:46.954Z,38.97
2023-01-10T10:37:18.979Z,39.14
2023-01-10T10:39:50.646Z,38.96
2023-01-10T10:42:19.573Z,39.53
2023-01-10T10:44:48.948Z,39.34
2023-01-10T10:47:17.727Z,39.16
2023-01-10T10:49:48.385Z,38.83
2023-01-10T10:52:21.041Z,39.16
2023-01-10T10:54:50.644Z,39.30
2023-01-10T10:57:18.844Z,39.03
2023-01-10T10:59:48.455Z,39.88
2023-01-10T11:02:26.244Z,39.85
2023-01-10T11:04:56.397Z,39.49
2023-01-10T11:07:24.635Z,39.35
2023-01-10T11:09:57.028Z,39.76
2023-01-10T11:12:31.817Z,39.97
2023-01-10T11:15:00.144Z,39.79
2023-01-10T11:17:29.359Z,39.42
2023-01-10T11:20:01.352Z,39.95
2023-01-10T11:22:30.256Z,39.82
2023-01-10T11:25:00.125Z,39.74
2023-01-10T11:27:30.005Z,39.65
2023-01-10T11:29:59.137Z,39.52
2023-01-10T11:32:35.097Z,39.25
2023-01-10T11:35:04.202Z,39.33
2023-01-10T11:37:32.880Z,39.26
2023-01-10T11:40:19.104Z,39.49
2023-01-10T11:42:47.478Z,38.73
2023-01-10T11:45:31.483Z,39.04
2023-01-10T11:48:10.352Z,39.16
2023-01-10T11:50:39.473Z,39.00
2023-01-10T11:53:07.755Z,38.93
2023-01-10T11:55:38.260Z,38.86
2023-01-10T11:58:08.359Z,38.87
2023-01-10T12:00:39.267Z,38.53
2023-01-10T12:03:22.647Z,39.04
2023-01-10T12:05:55.204Z,38.89
2023-01-10T12:08:31.328Z,38.60
2023-01-10T12:11:05.454Z,39.14
2023-01-10T12:13:45.582Z,38.84
2023-01-10T12:16:22.211Z,39.02
2023-01-10T12:18:51.242Z,38.62
2023-01-10T12:21:22.540Z,38.40
2023-01-10T12:23:50.913Z,38.55
2023-01-10T12:26:20.491Z,38.61
2023-01-10T12:28:52.280Z,38.89
2023-01-10T12:31:21.664Z,38.67
2023-01-10T12:33:52.913Z,38.75
2023-01-10T12:36:27.910Z,38.53
2023-01-10T12:39:06.320Z,38.23
2023-01-10T12:42:00.867Z,38.82
2023-01-10T12:44:33.082Z,38.90
2023-01-10T12:47:08.108Z,38.12
2023-01-10T12:49:40.852Z,38.63
2023-01-10T12:52:11.909Z,38.66
2023-01-10T12:54:40.092Z,38.28
2023-01-10T12:57:17.495Z,38.71
2023-01-10T12:59:46.026Z,38.43
2023-01-10T13:02:16.448Z,37.90
2023-01-10T13:04:44.769Z,38.55
2023-01-10T13:07:12.908Z,38.04
2023-01-10T13:09:41.344Z,38.48
2023-01-10T13:12:14.939Z,38.80
2023-01-10T13:14:45.394Z,38.82
2023-01-10T13:17:20.764Z,38.19
2023-01-10T13:20:21.844Z,38.37
2023-01-10T13:22:51.389Z,38.21
2023-01-10T13:25:21.412Z,38.48
2023-01-10T13:27:54.086Z,38.69
2023-01-10T13:30:27.335Z,38.81
2023-01-10T13:33:00.285Z,38.12
2023-01-10T13:35:29.505Z,38.59
2023-01-10T13:37:57.846Z,38.38
2023-01-10T13:40:28.428Z,38.79
2023-01-10T13:43:34.385Z,38.19
2023-01-10T13:46:35.165Z,38.51
2023-01-10T13:49:49.362Z,38.29
2023-01-10T13:52:41.174Z,38.48
2023-01-10T13:55:27.751Z,38.32
2023-01-10T13:58:00.003Z,38.34
2023-01-10T14:01:01.046Z,38.16
2023-01-10T14:03:53.747Z,38.51
2023-01-10T14:06:42.213Z,38.15
2023-01-10T14:09:39.769Z,38.65
2023-01-10T14:12:10.434Z,38.53
2023-01-10T14:14:39.429Z,38.69
2023-01-10T14:17:16.301Z,37.93
2023-01-10T14:19:45.091Z,37.93
2023-01-10T14:22:25.045Z,37.90
2023-01-10T14:24:53.613Z,38.21
2023-01-10T14:27:21.948Z,38.13
2023-01-10T14:29:51.834Z,38.20
2023-01-10T14:32:27.629Z,38.06
2023-01-10T14:34:55.816Z,38.35
2023-01-10T14:37:26.670Z,37.95
2023-01-10T14:39:56.127Z,38.40
2023-01-10T14:42:24.478Z,37.97
2023-01-10T14:44:56.012Z,37.58
2023-01-10T14:47:29.079Z,38.25
2023-01-10T14:49:58.167Z,37.70
2023-01-10T14:52:26.722Z,38.30
2023-01-10T14:55:04.814Z,38.20
2023-01-10T14:57:33.784Z,37.49
2023-01-10T15:00:06.921Z,37.90
2023-01-10T15:02:39.109Z,37.87
2023-01-10T15:05:10.885Z,37.96
2023-01-10T15:07:39.249Z,38.11
2023-01-10T15:10:19.024Z,37.59
2023-01-10T15:12:47.191Z,37.81
2023-01-10T15:15:16.965Z,37.91
2023-01-10T15:17:46.518Z,37.35
2023-01-10T15:20:15.708Z,37.11
2023-01-10T15:22:44.271Z,37.49
2023-01-10T15:25:28.349Z,37.96
2023-01-10T15:27:56.839Z,37.44
2023-01-10T15:30:25.756Z,37.99
2023-01-10T15:32:55.808Z,38.01
2023-01-10T15:35:35.409Z,37.44
2023-01-10T15:38:05.164Z,37.95
2023-01-10T15:40:34.365Z,37.50
2023-01-10T15:43:13.510Z,37.82
2023-01-10T15:45:44.862Z,38.14
2023-01-10T15:48:32.731Z,38.12
2023-01-10T15:51:03.669Z,37.55
2023-01-10T15:53:55.733Z,38.18
2023-01-10T15:56:26.170Z,38.13
2023-01-10T15:58:54.326Z,37.42
2023-01-10T16:01:22.550Z,37.98
2023-01-10T16:03:53.146Z,38.24
2023-01-10T16:06:24.019Z,37.38
2023-01-10T16:08:53.476Z,37.72
2023-01-10T16:11:37.868Z,37.78
2023-01-10T16:14:06.004Z,37.60
2023-01-10T16:16:34.169Z,38.01
2023-01-10T16:19:03.984Z,37.52
2023-01-10T16:21:35.257Z,37.50
2023-01-10T16:24:03.736Z,37.45
2023-01-10T16:26:31.803Z,37.83
2023-01-10T16:28:59.964Z,38.17
2023-01-10T16:31:28.108Z,37.64
2023-01-10T16:33:56.373Z,37.66
2023-01-10T16:36:25.897Z,38.13
2023-01-10T16:38:54.074Z,38.21
2023-01-10T16:41:39.666Z,37.99
2023-01-10T16:44:07.787Z,38.01
2023-01-10T16:46:36.100Z,37.59
2023-01-10T16:49:06.632Z,37.99
2023-01-10T16:51:39.034Z,38.10
2023-01-10T16:54:07.270Z,37.47
2023-01-10T16:56:35.341Z,37.66
2023-01-10T16:59:06.247Z,37.57
2023-01-10T17:01:37.351Z,37.49
2023-01-10T17:04:06.890Z,37.70
2023-01-10T17:06:36.675Z,37.84
2023-01-10T17:09:04.994Z,37.52
2023-01-10T17:11:34.456Z,37.76
2023-01-10T17:14:02.730Z,37.51
2023-01-10T17:16:30.866Z,37.56
2023-01-10T17:18:59.021Z,37.76
2023-01-10T17:21:27.173Z,37.84
2023-01-10T17:23:56.684Z,37.20
2023-01-10T17:26:24.821Z,37.50
2023-01-10T17:28:52.910Z,37.48
2023-01-10T17:31:21.016Z,37.44
2023-01-10T17:33:49.854Z,38.10
2023-01-10T17:36:19.419Z,37.77
2023-01-10T17:38:47.863Z,37.65
2023-01-10T17:41:17.373Z,37.60
2023-01-10T17:43:45.561Z,37.77
2023-01-10T17:46:14.051Z,37.77
2023-01-10T17:48:42.337Z,37.52
2023-01-10T17:51:13.080Z,37.38
2023-01-10T17:53:41.265Z,37.83
2023-01-10T17:56:09.922Z,36.90
2023-01-10T17:58:39.415Z,37.51
2023-01-10T18:01:07.738Z,37.19
2023-01-10T18:03:35.846Z,36.71
2023-01-10T18:06:05.534Z,36.77
2023-01-10T18:08:33.846Z,37.23
2023-01-10T18:11:01.979Z,36.82
2023-01-10T18:13:31.551Z,36.89
2023-01-10T18:16:01.263Z,37.05
2023-01-10T18:18:29.392Z,36.78
2023-01-10T18:20:58.295Z,37.09
2023-01-10T18:23:26.948Z,36.74
2023-01-10T18:25:55.732Z,37.04
2023-01-10T18:28:39.632Z,37.16
2023-01-10T18:31:10.627Z,36.78
2023-01-10T18:33:39.269Z,37.07
2023-01-10T18:36:08.502Z,36.57
2023-01-10T18:38:37.607Z,36.71
2023-01-10T18:41:06.123Z,37.11
2023-01-10T18:43:34.506Z,37.26
2023-01-10T18:46:03.527Z,36.97
2023-01-10T18:48:33.244Z,36.88
2023-01-10T18:51:02.006Z,36.27
2023-01-10T18:53:30.231Z,36.85
2023-01-10T18:55:59.269Z,36.54
2023-01-10T18:58:27.884Z,36.57
2023-01-10T19:00:56.139Z,37.07
2023-01-10T19:03:24.570Z,37.06
2023-01-10T19:05:54.457Z,36.91
2023-01-10T19:08:23.164Z,37.54
2023-01-10T19:11:11.949Z,37.07
2023-01-10T19:13:39.372Z,37.22
2023-01-10T19:16:12.156Z,37.16
2023-01-10T19:18:40.462Z,37.26
2023-01-10T19:21:15.267Z,36.93
2023-01-10T19:23:43.733Z,37.19
2023-01-10T19:26:11.848Z,36.62
2023-01-10T19:28:40.032Z,37.33
2023-01-10T19:31:08.231Z,36.65
2023-01-10T19:33:37.544Z,36.45
2023-01-10T19:36:06.786Z,37.18
2023-01-10T19:38:36.408Z,37.26
2023-01-10T19:41:04.669Z,37.32
2023-01-10T19:43:34.024Z,36.84
2023-01-10T19:46:04.029Z,37.16
2023-01-10T19:48:33.889Z,36.87
2023-01-10T19:51:06.414Z,36.99
2023-01-10T19:53:36.831Z,36.76
2023-01-10T19:56:07.484Z,37.27
2023-01-10T19:58:35.755Z,37.35
2023-01-10T20:01:10.409Z,37.43
2023-01-10T20:03:41.103Z,36.88
2023-01-10T20:06:09.843Z,36.91
2023-01-10T20:08:39.303Z,37.21
2023-01-10T20:11:07.708Z,37.20
2023-01-10T20:13:37.235Z,37.72
2023-01-10T20:16:05.773Z,37.70
2023-01-10T20:18:34.010Z,37.17
2023-01-10T20:21:06.563Z,37.76
2023-01-10T20:23:34.900Z,37.65
2023-01-10T20:26:06.721Z,37.67
2023-01-10T20:28:35.170Z,37.33
2023-01-10T20:31:03.352Z,37.39
2023-01-10T20:33:34.190Z,37.35
2023-01-10T20:36:03.790Z,37.38
2023-01-10T20:38:32.399Z,37.75
2023-01-10T20:41:00.716Z,37.84
2023-01-10T20:43:30.209Z,37.25
2023-01-10T20:45:58.404Z,37.69
2023-01-10T20:48:26.500Z,37.55
2023-01-10T20:50:54.655Z,37.21
2023-01-10T20:53:22.756Z,36.89
2023-01-10T20:55:59.420Z,37.69
2023-01-10T20:58:29.130Z,37.28
2023-01-10T21:00:57.212Z,37.42
2023-01-10T21:03:25.359Z,36.75
2023-01-10T21:05:54.088Z,37.23
2023-01-10T21:08:22.366Z,37.36
2023-01-10T21:10:50.653Z,36.78
2023-01-10T21:13:18.800Z,36.93
2023-01-10T21:15:48.589Z,36.86
2023-01-10T21:18:17.047Z,36.99
2023-01-10T21:20:45.345Z,37.11
2023-01-10T21:23:13.981Z,37.26
2023-01-10T21:25:42.136Z,37.15
2023-01-10T21:28:10.513Z,36.60
2023-01-10T21:30:38.661Z,36.96
2023-01-10T21:33:08.247Z,37.00
2023-01-10T21:35:36.340Z,36.37
2023-01-10T21:38:04.603Z,36.75
2023-01-10T21:40:33.203Z,36.47
2023-01-10T21:43:02.877Z,36.83
2023-01-10T21:45:31.021Z,36.89
2023-01-10T21:47:59.135Z,36.71
2023-01-10T21:50:33.560Z,36.60
2023-01-10T21:53:01.731Z,37.10
2023-01-10T21:55:30.041Z,37.00
2023-01-10T21:57:58.262Z,36.52
2023-01-10T22:00:26.631Z,37.24
2023-01-10T22:02:55.884Z,36.67
2023-01-10T22:05:24.314Z,37.24
2023-01-10T22:07:53.843Z,37.23
2023-01-10T22:10:21.976Z,37.14
2023-01-10T22:12:50.141Z,37.43
2023-01-10T22:15:18.531Z,37.17
2023-01-10T22:17:48.231Z,36.90
2023-01-10T22:20:16.946Z,37.16
2023-01-10T22:22:45.019Z,37.49
2023-01-10T22:25:14.624Z,36.83
2023-01-10T22:27:44.944Z,37.37
2023-01-10T22:30:13.800Z,37.29
2023-01-10T22:32:41.848Z,37.35
2023-01-10T22:35:13.711Z,37.01
2023-01-10T22:37:41.955Z,37.10
2023-01-10T22:40:11.415Z,37.55
2023-01-10T22:42:41.003Z,37.14
2023-01-10T22:45:10.139Z,37.40
2023-01-10T22:47:38.519Z,37.20
2023-01-10T22:50:07.641Z,37.82
2023-01-10T22:52:35.799Z,37.63
2023-01-10T22:55:03.870Z,37.83
2023-01-10T22:57:33.208Z,37.64
2023-01-10T23:00:02.758Z,37.49
2023-01-10T23:02:31.818Z,37.58
2023-01-10T23:04:59.956Z,37.38
2023-01-10T23:07:28.103Z,37.67
2023-01-10T23:09:56.183Z,37.85
2023-01-10T23:12:24.456Z,37.44
2023-01-10T23:14:52.618Z,38.21
2023-01-10T23:17:22.147Z,37.54
2023-01-10T23:19:50.302Z,37.61
2023-01-10T23:22:18.347Z,37.55
2023-01-10T23:24:46.503Z,37.56
2023-01-10T23:27:14.611Z,37.69
2023-01-10T23:29:42.703Z,37.64
2023-01-10T23:32:10.871Z,38.07
2023-01-10T23:34:40.450Z,38.30
2023-01-10T23:37:08.526Z,37.97
2023-01-10T23:39:36.645Z,37.74
2023-01-10T23:42:04.925Z,38.46
2023-01-10T23:44:33.757Z,37.67
2023-01-10T23:47:01.826Z,37.59
2023-01-10T23:49:29.974Z,37.96
2023-01-10T23:51:59.394Z,37.33
2023-01-10T23:54:27.524Z,37.73
2023-01-10T23:56:55.702Z,37.04
2023-01-10T23:59:23.916Z,37.43
